Time;durP1;ratioP1;P1;durP2;ratioP2;P2;SDS_P1;SDS_P2;PMS_P1;PMS_P2;Temp;Humidity;BMP_temperature;BMP_pressure;BME280_temperature;BME280_humidity;BME280_pressure;Samples;Min_cycle;Max_cycle;Signal;HPM_P1;HPM_P2
2020/12/17 00:02:03;;;;;;;37.87;31.37;;;;;;;11.10;67.11;101565.56;6124627;28;20232;-60
2020/12/17 00:05:24;;;;;;;37.37;31.93;;;;;;;11.00;67.10;101561.22;6119255;28;20236;-60
2020/12/17 00:08:45;;;;;;;36.30;31.13;;;;;;;11.08;66.71;101554.25;6120052;28;20235;-59
2020/12/17 00:12:06;;;;;;;36.63;31.13;;;;;;;11.00;66.59;101549.03;6125494;28;20231;-59
2020/12/17 00:15:26;;;;;;;34.97;30.47;;;;;;;11.00;66.81;101545.56;6123576;28;20913;-58
2020/12/17 00:18:47;;;;;;;36.50;31.77;;;;;;;11.14;66.57;101537.75;6119179;28;20228;-59
2020/12/17 00:22:08;;;;;;;35.63;29.87;;;;;;;10.89;66.92;101532.53;6122789;28;20224;-59
2020/12/17 00:25:28;;;;;;;40.80;32.47;;;;;;;10.92;66.70;101529.06;6123855;28;20826;-58
2020/12/17 00:28:49;;;;;;;38.13;30.23;;;;;;;10.87;66.85;101530.78;6114863;28;20235;-58
2020/12/17 00:32:09;;;;;;;38.40;29.93;;;;;;;10.83;66.98;101528.19;6122187;28;20224;-58
2020/12/17 00:35:30;;;;;;;44.17;31.53;;;;;;;10.69;67.31;101524.69;6120697;28;20270;-58
2020/12/17 00:38:51;;;;;;;36.53;28.43;;;;;;;10.69;67.61;101524.69;6124302;28;20289;-59
2020/12/17 00:42:12;;;;;;;37.17;29.67;;;;;;;10.72;67.53;101518.59;6122395;28;20314;-59
2020/12/17 00:45:32;;;;;;;37.07;28.23;;;;;;;10.61;67.70;101527.28;6122089;28;20235;-58
2020/12/17 00:48:54;;;;;;;36.83;27.43;;;;;;;10.64;67.39;101529.00;6119554;28;20235;-59
2020/12/17 00:52:14;;;;;;;36.37;28.27;;;;;;;10.82;66.72;101529.06;6116546;28;20285;-60
2020/12/17 00:55:35;;;;;;;37.07;29.93;;;;;;;10.78;66.96;101516.91;6121208;28;20248;-59
2020/12/17 00:58:55;;;;;;;34.93;28.83;;;;;;;10.72;67.30;101516.91;6122233;28;20247;-59
2020/12/17 01:02:16;;;;;;;36.90;28.70;;;;;;;10.70;67.29;101510.81;6121662;28;20232;-58
2020/12/17 01:05:37;;;;;;;37.67;31.60;;;;;;;10.72;66.76;101513.41;6118069;28;20320;-58
2020/12/17 01:08:57;;;;;;;34.97;29.90;;;;;;;10.71;67.13;101496.91;6116268;28;20228;-58
2020/12/17 01:12:19;;;;;;;37.67;29.27;;;;;;;10.50;67.60;101496.88;6119939;28;20235;-60
2020/12/17 01:15:39;;;;;;;32.60;28.30;;;;;;;10.67;67.09;101489.97;6121275;28;20559;-60
2020/12/17 01:19:00;;;;;;;31.90;26.50;;;;;;;10.69;66.63;101488.22;6119992;28;20231;-59
2020/12/17 01:22:20;;;;;;;37.00;29.03;;;;;;;10.42;67.07;101497.72;6120118;28;20243;-57
2020/12/17 01:25:40;;;;;;;37.03;28.93;;;;;;;10.42;67.30;101494.25;6120261;28;20505;-59
2020/12/17 01:29:02;;;;;;;37.30;27.30;;;;;;;10.48;67.16;101498.59;6122362;28;20323;-58
2020/12/17 01:32:22;;;;;;;38.63;30.50;;;;;;;10.46;67.03;101498.59;6119504;28;20243;-59
2020/12/17 01:35:42;;;;;;;36.10;28.37;;;;;;;10.60;66.66;101504.72;6120091;28;20227;-60
2020/12/17 01:39:03;;;;;;;34.40;27.70;;;;;;;10.35;66.99;101502.91;6121822;28;20733;-60
2020/12/17 01:42:24;;;;;;;37.00;28.80;;;;;;;10.25;67.89;101499.38;6119606;28;20239;-60
2020/12/17 01:45:45;;;;;;;41.27;29.13;;;;;;;9.95;68.01;101506.22;6121429;28;20926;-58
2020/12/17 01:49:06;;;;;;;35.00;29.73;;;;;;;9.88;68.44;101498.38;6122801;28;20267;-59
2020/12/17 01:52:26;;;;;;;32.13;26.40;;;;;;;9.84;68.96;101500.06;6120993;28;20338;-58
2020/12/17 01:55:47;;;;;;;38.33;31.17;;;;;;;9.84;68.84;101510.47;6121635;28;20235;-59
2020/12/17 01:59:18;;;;;;;33.53;28.10;;;;;;;10.19;67.35;101504.56;6118572;28;20240;-59
2020/12/17 02:02:41;;;;;;;33.23;27.23;;;;;;;10.09;67.80;101511.47;6120610;28;20231;-59
2020/12/17 02:06:01;;;;;;;38.60;27.97;;;;;;;9.74;68.98;101500.91;6119192;28;20231;-58
2020/12/17 02:09:21;;;;;;;36.70;28.67;;;;;;;9.69;69.15;101508.66;6115076;28;20236;-58
2020/12/17 02:12:43;;;;;;;34.30;26.83;;;;;;;10.09;67.90;101497.59;6123591;28;20231;-58
2020/12/17 02:16:05;;;;;;;35.40;28.27;;;;;;;10.17;67.83;101508.88;6111533;28;20344;-58
2020/12/17 02:19:26;;;;;;;29.37;25.80;;;;;;;9.97;68.14;101503.63;6116001;28;20219;-58
2020/12/17 02:22:47;;;;;;;30.63;25.87;;;;;;;9.88;68.03;101499.22;6118477;28;20637;-59
2020/12/17 02:26:08;;;;;;;33.67;27.30;;;;;;;10.10;67.82;101496.72;6119597;28;20516;-59
2020/12/17 02:29:28;;;;;;;30.00;25.87;;;;;;;10.11;67.37;101490.66;6109196;28;20332;-58
2020/12/17 02:32:48;;;;;;;31.60;26.73;;;;;;;10.21;67.12;101485.47;6115461;28;20227;-58
2020/12/17 02:36:09;;;;;;;30.87;24.30;;;;;;;10.32;66.15;101485.56;6115276;28;20227;-59
2020/12/17 02:39:30;;;;;;;31.87;24.07;;;;;;;10.08;67.42;101477.63;6119560;28;20240;-58
2020/12/17 02:42:51;;;;;;;33.03;26.00;;;;;;;10.23;66.93;101485.47;6119608;28;20331;-58
2020/12/17 02:46:12;;;;;;;29.37;24.37;;;;;;;10.10;67.29;101500.22;6118599;28;20236;-59
2020/12/17 02:49:32;;;;;;;28.87;24.23;;;;;;;10.10;67.57;101494.09;6121021;28;20326;-60
2020/12/17 02:52:53;;;;;;;29.43;26.17;;;;;;;9.74;68.27;101483.56;6380722;23;20240;-58
2020/12/17 02:56:14;;;;;;;30.90;25.97;;;;;;;9.58;68.89;101493.00;6098269;29;20228;-58
2020/12/17 02:59:36;;;;;;;28.40;23.97;;;;;;;9.88;67.78;101494.03;6097057;29;20641;-58
2020/12/17 03:02:56;;;;;;;31.87;24.10;;;;;;;9.73;68.27;101497.44;6090707;29;20255;-58
2020/12/17 03:06:16;;;;;;;29.20;24.10;;;;;;;9.89;67.89;101484.47;6095934;29;20555;-58
2020/12/17 03:09:37;;;;;;;30.23;25.43;;;;;;;10.12;67.23;101484.56;6094463;29;20284;-59
2020/12/17 03:12:58;;;;;;;34.13;23.50;;;;;;;10.28;66.46;101478.56;6092876;29;20875;-58
2020/12/17 03:16:19;;;;;;;28.33;23.73;;;;;;;10.13;66.60;101478.53;6099856;28;20231;-58
2020/12/17 03:19:39;;;;;;;29.70;23.57;;;;;;;9.99;67.17;101481.94;6092705;29;20314;-58
2020/12/17 03:22:59;;;;;;;29.83;23.40;;;;;;;9.99;67.15;101476.72;6095675;29;20244;-59
2020/12/17 03:26:20;;;;;;;30.50;24.67;;;;;;;10.00;67.53;101470.69;6096756;28;20229;-59
2020/12/17 03:29:40;;;;;;;33.60;24.17;;;;;;;10.00;66.81;101475.88;6094318;29;20264;-58
2020/12/17 03:33:02;;;;;;;27.87;24.37;;;;;;;10.20;66.42;101467.28;6086406;29;20233;-60
2020/12/17 03:36:22;;;;;;;30.20;24.77;;;;;;;10.04;67.06;101469.81;6100013;29;20236;-57
2020/12/17 03:39:42;;;;;;;27.23;23.13;;;;;;;10.28;66.52;101475.97;6101956;29;20902;-58
2020/12/17 03:43:03;;;;;;;30.20;25.07;;;;;;;10.27;66.33;101478.56;6098976;29;20232;-58
2020/12/17 03:46:23;;;;;;;30.53;24.43;;;;;;;10.02;66.73;101458.53;6095368;29;20232;-58
2020/12/17 03:49:45;;;;;;;29.30;23.33;;;;;;;10.42;66.15;101457.78;6093526;29;20237;-58
2020/12/17 03:53:05;;;;;;;26.20;22.50;;;;;;;10.01;67.29;101461.13;6085090;29;20359;-59
2020/12/17 03:56:27;;;;;;;29.97;23.60;;;;;;;9.94;67.20;101459.34;6073055;29;20241;-58
2020/12/17 03:59:47;;;;;;;35.77;25.70;;;;;;;9.84;67.89;101458.44;6068227;29;20767;-58
2020/12/17 04:03:08;;;;;;;31.23;25.20;;;;;;;9.75;67.84;101463.59;6072043;29;20607;-59
2020/12/17 04:06:29;;;;;;;31.57;24.40;;;;;;;9.76;67.56;101452.34;6075476;29;20244;-58
2020/12/17 04:09:49;;;;;;;30.80;24.77;;;;;;;9.80;67.58;101454.09;6074401;29;20233;-59
2020/12/17 04:13:10;;;;;;;32.53;24.60;;;;;;;9.93;66.97;101458.50;6075447;29;20611;-56
2020/12/17 04:16:51;;;;;;;29.20;24.33;;;;;;;9.68;68.07;101448.84;6077342;29;20237;-59
2020/12/17 04:20:11;;;;;;;32.47;26.40;;;;;;;9.78;67.66;101448.03;6077127;29;20248;-59
2020/12/17 04:23:33;;;;;;;29.87;23.87;;;;;;;9.75;67.55;101453.19;6074908;29;20237;-58
2020/12/17 04:26:54;;;;;;;28.67;24.03;;;;;;;9.55;68.09;101455.72;6071491;29;20852;-58
2020/12/17 04:30:14;;;;;;;29.27;23.40;;;;;;;9.78;67.36;101448.88;6075029;29;20229;-58
2020/12/17 04:33:34;;;;;;;31.37;24.57;;;;;;;9.94;67.04;101454.16;6069738;29;20237;-58
2020/12/17 04:36:55;;;;;;;30.67;25.37;;;;;;;9.93;66.72;101448.09;6074241;29;20512;-57
2020/12/17 04:40:17;;;;;;;31.07;24.13;;;;;;;10.10;65.90;101453.38;6073398;29;20662;-58
2020/12/17 04:43:38;;;;;;;28.40;22.47;;;;;;;9.92;66.08;101445.47;6075304;29;20533;-56
2020/12/17 04:46:59;;;;;;;28.00;22.63;;;;;;;9.77;66.90;101441.06;6071376;29;20622;-57
2020/12/17 04:50:24;;;;;;;30.50;23.70;;;;;;;9.90;66.48;101444.59;6074820;29;20237;-59
2020/12/17 04:53:46;;;;;;;25.83;22.63;;;;;;;9.91;66.92;101447.22;6070586;29;20234;-57
2020/12/17 04:57:09;;;;;;;26.60;23.23;;;;;;;9.67;67.35;101442.75;6075196;29;20611;-58
2020/12/17 05:00:29;;;;;;;28.50;24.53;;;;;;;9.77;67.16;101436.75;6073903;29;20237;-59
2020/12/17 05:03:50;;;;;;;23.87;21.17;;;;;;;9.66;67.20;101423.69;6068556;29;20229;-58
2020/12/17 05:07:12;;;;;;;24.93;20.77;;;;;;;9.75;67.01;101416.78;6075286;29;20237;-59
2020/12/17 05:10:32;;;;;;;28.23;22.13;;;;;;;10.06;65.70;101417.75;6068107;29;20245;-58
2020/12/17 05:13:55;;;;;;;26.87;22.57;;;;;;;10.10;65.78;101403.91;6075136;29;20630;-57
2020/12/17 05:17:15;;;;;;;23.63;20.73;;;;;;;10.08;66.12;101425.56;6075352;29;20233;-58
2020/12/17 05:20:37;;;;;;;25.93;21.67;;;;;;;9.97;66.02;101428.16;6075671;29;20867;-59
2020/12/17 05:23:57;;;;;;;27.47;21.60;;;;;;;9.86;66.79;101431.56;6073713;29;20256;-59
2020/12/17 05:27:18;;;;;;;28.50;22.83;;;;;;;9.79;66.72;101423.75;6076494;29;20935;-58
2020/12/17 05:30:39;;;;;;;26.17;21.00;;;;;;;9.79;66.45;101421.13;6072934;29;20237;-58
2020/12/17 05:34:02;;;;;;;25.77;20.97;;;;;;;9.96;66.71;101422.06;6065366;29;20241;-59
2020/12/17 05:37:23;;;;;;;26.53;21.20;;;;;;;9.83;66.54;101426.38;6073491;29;20252;-57
2020/12/17 05:40:44;;;;;;;25.57;21.23;;;;;;;9.93;66.54;101432.47;6071850;29;20603;-58
2020/12/17 05:44:12;;;;;;;26.67;21.97;;;;;;;10.02;65.82;101439.44;6073053;29;20245;-59
2020/12/17 05:47:33;;;;;;;27.17;21.00;;;;;;;10.08;65.36;101447.28;6073870;29;20269;-58
2020/12/17 05:50:55;;;;;;;24.27;19.97;;;;;;;10.08;66.00;101443.78;6076140;29;20667;-56
2020/12/17 05:54:22;;;;;;;23.90;19.23;;;;;;;10.29;65.14;101451.66;6073175;29;20233;-58
2020/12/17 05:57:51;;;;;;;30.20;21.27;;;;;;;10.13;65.91;101460.31;6074597;29;20241;-59
2020/12/17 06:01:13;;;;;;;26.75;23.08;;;;;;;9.81;66.23;101450.66;6067475;29;20760;-57
2020/12/17 06:04:34;;;;;;;27.60;22.70;;;;;;;10.00;66.01;101452.47;6073680;29;20240;-58
2020/12/17 06:07:59;;;;;;;23.77;20.27;;;;;;;9.96;66.04;101448.09;6075399;29;20240;-59
2020/12/17 06:11:24;;;;;;;28.10;22.33;;;;;;;9.78;66.85;101442.81;6073070;29;20228;-58
2020/12/17 06:14:47;;;;;;;25.27;20.30;;;;;;;9.95;66.22;101446.38;6072146;29;20826;-58
2020/12/17 06:18:11;;;;;;;23.57;20.70;;;;;;;10.19;65.37;101442.09;6069843;29;20261;-58
2020/12/17 06:21:34;;;;;;;25.87;21.50;;;;;;;10.33;64.81;101435.22;6073062;29;20237;-57
2020/12/17 06:24:55;;;;;;;25.50;19.50;;;;;;;10.47;64.87;101426.53;6073442;29;20233;-58
2020/12/17 06:28:37;;;;;;;24.03;19.53;;;;;;;10.49;64.50;101417.00;6064936;29;20498;-57
2020/12/17 06:31:59;;;;;;;25.43;21.10;;;;;;;10.29;64.69;101424.75;6068649;29;20268;-59
2020/12/17 06:35:30;;;;;;;22.53;18.47;;;;;;;10.29;64.87;101415.19;6069489;29;20581;-58
2020/12/17 06:38:53;;;;;;;28.50;22.00;;;;;;;10.00;65.69;101416.03;6075170;29;20228;-55
2020/12/17 06:42:39;;;;;;;25.33;19.50;;;;;;;9.86;66.05;101409.91;6071823;29;20595;-54
2020/12/17 06:46:00;;;;;;;23.63;19.17;;;;;;;10.00;66.09;101409.94;6072211;29;20603;-60
2020/12/17 06:49:25;;;;;;;21.93;19.63;;;;;;;10.00;66.21;101412.53;6066049;29;20251;-60
2020/12/17 06:53:05;;;;;;;22.90;19.47;;;;;;;10.03;65.89;101410.81;6073430;29;20241;-58
2020/12/17 06:56:26;;;;;;;25.70;19.13;;;;;;;10.11;65.31;101395.22;6071233;29;20236;-55
2020/12/17 07:00:05;;;;;;;26.57;19.90;;;;;;;10.00;65.98;101387.41;6072553;29;20237;-55
2020/12/17 07:03:47;;;;;;;25.58;22.98;;;;;;;10.08;66.12;101386.53;6058902;29;20848;-57
2020/12/17 07:07:18;;;;;;;26.60;20.27;;;;;;;9.94;66.10;101376.97;6071168;29;20241;-57
2020/12/17 07:10:39;;;;;;;22.13;19.77;;;;;;;9.98;65.90;101362.22;6069688;29;20236;-59
2020/12/17 07:14:01;;;;;;;21.97;19.57;;;;;;;9.88;66.48;101366.53;6064796;29;20248;-60
2020/12/17 07:17:23;;;;;;;24.53;21.13;;;;;;;10.04;65.90;101363.13;6066416;29;20225;-57
2020/12/17 07:20:44;;;;;;;22.60;18.63;;;;;;;9.84;66.42;101367.41;6069079;29;20259;-57
2020/12/17 07:24:05;;;;;;;22.03;18.33;;;;;;;9.96;65.91;101376.97;6064667;29;20237;-57
2020/12/17 07:27:28;;;;;;;23.47;19.40;;;;;;;10.01;66.01;101383.06;6077120;29;20257;-58
2020/12/17 07:30:54;;;;;;;21.33;18.70;;;;;;;10.21;65.25;101364.88;6069326;29;20229;-59
2020/12/17 07:34:16;;;;;;;19.00;16.77;;;;;;;10.49;65.17;101385.75;6066450;29;20241;-60
2020/12/17 07:37:39;;;;;;;25.10;20.17;;;;;;;9.99;66.25;101422.09;6070550;29;20497;-59
2020/12/17 07:41:00;;;;;;;21.80;18.10;;;;;;;9.73;66.98;101422.00;6057425;29;20736;-58
2020/12/17 07:44:34;;;;;;;20.57;18.43;;;;;;;10.09;65.91;101417.78;6063427;29;20253;-61
2020/12/17 07:47:55;;;;;;;27.60;19.67;;;;;;;9.93;66.22;101416.88;6070175;29;20225;-60
2020/12/17 07:51:30;;;;;;;20.00;16.53;;;;;;;10.35;65.43;101424.78;6065816;29;20241;-59
2020/12/17 07:54:52;;;;;;;20.97;18.53;;;;;;;10.21;65.69;101427.34;6070366;29;20237;-57
2020/12/17 07:58:15;;;;;;;22.50;18.23;;;;;;;10.48;65.08;101399.66;6068072;29;20241;-59
2020/12/17 08:01:35;;;;;;;26.50;20.00;;;;;;;10.56;64.43;101417.00;6071864;29;20229;-58
2020/12/17 08:04:57;;;;;;;18.30;15.73;;;;;;;10.37;64.90;101421.34;6057309;29;20241;-59
2020/12/17 08:08:18;;;;;;;20.27;17.37;;;;;;;10.43;64.72;101415.28;6062969;29;20241;-60
2020/12/17 08:11:39;;;;;;;21.07;17.07;;;;;;;10.43;64.54;101423.97;6069624;29;20237;-61
2020/12/17 08:15:07;;;;;;;19.07;16.13;;;;;;;10.31;65.50;101408.28;6081818;29;20233;-60
2020/12/17 08:18:29;;;;;;;18.03;15.43;;;;;;;10.59;64.81;101418.75;6067697;29;20245;-60
2020/12/17 08:21:51;;;;;;;21.33;17.50;;;;;;;10.58;64.79;101425.69;6071552;29;20559;-59
2020/12/17 08:25:11;;;;;;;22.13;17.07;;;;;;;10.41;64.92;101428.28;6073595;29;20626;-58
2020/12/17 08:28:35;;;;;;;19.53;16.73;;;;;;;10.57;65.10;101420.50;6069731;29;20233;-57
2020/12/17 08:31:55;;;;;;;17.60;15.70;;;;;;;10.68;64.31;101426.56;6075517;29;20771;-63
2020/12/17 08:35:22;;;;;;;18.17;14.77;;;;;;;10.42;65.13;101417.00;6073918;29;20234;-61
2020/12/17 08:38:56;;;;;;;17.10;14.17;;;;;;;10.75;64.71;101417.88;6072328;29;20236;-68
2020/12/17 08:42:18;;;;;;;18.93;15.83;;;;;;;10.76;64.68;101411.81;6071311;29;20229;-62
2020/12/17 08:45:40;;;;;;;10.87;8.67;;;;;;;11.00;69.95;101410.06;6068573;29;20332;-62
2020/12/17 08:49:04;;;;;;;16.90;14.93;;;;;;;11.26;66.75;101412.59;6071236;29;20265;-62
2020/12/17 08:52:26;;;;;;;18.33;16.27;;;;;;;11.40;64.26;101407.38;6071889;29;20252;-62
2020/12/17 08:56:00;;;;;;;17.27;15.47;;;;;;;10.93;64.69;101408.31;6072563;29;20241;-62
2020/12/17 08:59:21;;;;;;;17.23;15.30;;;;;;;11.00;64.41;101404.84;6067372;29;20257;-63
2020/12/17 09:02:42;;;;;;;19.47;16.10;;;;;;;10.65;65.50;101418.75;6056244;29;20233;-58
2020/12/17 09:06:03;;;;;;;15.87;13.93;;;;;;;10.39;66.04;101411.81;6072818;29;20249;-55
2020/12/17 09:09:26;;;;;;;18.70;15.43;;;;;;;10.25;66.50;101413.47;6072427;29;20603;-57
2020/12/17 09:12:55;;;;;;;16.20;13.93;;;;;;;10.66;65.67;101417.00;6060329;29;20241;-56
2020/12/17 09:16:21;;;;;;;17.53;14.67;;;;;;;10.78;65.70;101414.44;6059218;29;20233;-62
2020/12/17 09:19:43;;;;;;;18.13;14.07;;;;;;;10.46;66.36;101411.81;6058320;29;20241;-62
2020/12/17 09:23:06;;;;;;;16.87;13.90;;;;;;;10.56;65.81;101421.34;6059337;29;20229;-58
2020/12/17 09:26:28;;;;;;;16.10;13.43;;;;;;;10.86;65.07;101411.78;6058926;29;20237;-61
2020/12/17 09:30:10;;;;;;;16.00;14.07;;;;;;;10.68;65.95;101410.94;6061530;29;20237;-50
2020/12/17 09:33:30;;;;;;;17.47;15.10;;;;;;;10.98;65.00;101417.00;6058228;29;20237;-60
2020/12/17 09:36:56;;;;;;;15.97;13.63;;;;;;;11.09;64.92;101415.25;6057982;29;20324;-54
2020/12/17 09:40:22;;;;;;;14.70;13.20;;;;;;;11.18;64.49;101420.44;6060678;29;20362;-54
2020/12/17 09:43:47;;;;;;;14.97;12.47;;;;;;;10.94;65.60;101415.28;6058112;29;20249;-59
2020/12/17 09:47:09;;;;;;;18.77;15.37;;;;;;;11.00;65.42;101416.13;6060010;29;20232;-52
2020/12/17 09:50:30;;;;;;;14.90;13.30;;;;;;;11.06;65.31;101417.84;6063010;29;20234;-60
2020/12/17 09:54:02;;;;;;;16.43;14.30;;;;;;;11.06;65.54;101419.59;6055181;29;20241;-58
2020/12/17 09:57:23;;;;;;;19.97;14.67;;;;;;;10.81;66.52;101424.84;6056841;29;20237;-57
2020/12/17 10:00:43;;;;;;;15.10;13.47;;;;;;;10.93;66.42;101421.34;6055060;29;20237;-59
2020/12/17 10:04:05;;;;;;;18.50;15.03;;;;;;;10.96;66.22;101426.56;6060393;29;20237;-59
2020/12/17 10:07:25;;;;;;;17.77;15.87;;;;;;;10.97;66.48;101450.03;6060125;29;20256;-59
2020/12/17 10:10:46;;;;;;;21.13;14.90;;;;;;;10.98;66.77;101430.91;6061706;29;20238;-57
2020/12/17 10:14:06;;;;;;;20.40;15.63;;;;;;;10.58;68.70;101443.91;6060770;29;20240;-58
2020/12/17 10:17:27;;;;;;;18.97;15.93;;;;;;;10.76;68.46;101445.69;6058554;29;20260;-58
2020/12/17 10:20:48;;;;;;;18.40;15.87;;;;;;;10.97;67.40;101450.03;6055143;29;20237;-61
2020/12/17 10:24:09;;;;;;;16.50;14.73;;;;;;;10.79;68.25;101452.63;6057792;29;20229;-60
2020/12/17 10:27:29;;;;;;;19.40;15.43;;;;;;;10.83;68.18;101452.63;6065239;29;20850;-63
2020/12/17 10:30:50;;;;;;;16.03;13.37;;;;;;;10.90;68.46;101452.63;6063906;29;20233;-57
2020/12/17 10:34:11;;;;;;;18.53;13.30;;;;;;;10.96;69.01;101448.28;6070361;29;20558;-56
2020/12/17 10:37:32;;;;;;;18.73;16.63;;;;;;;11.05;68.85;101439.59;6071220;29;20233;-52
2020/12/17 10:40:52;;;;;;;16.83;15.07;;;;;;;10.89;69.46;101453.50;6067190;29;20509;-61
2020/12/17 10:44:13;;;;;;;21.27;14.90;;;;;;;10.99;68.77;101450.00;6071229;29;20221;-59
2020/12/17 10:47:33;;;;;;;19.87;16.40;;;;;;;10.58;70.30;101450.88;6072009;29;20229;-59
2020/12/17 10:50:54;;;;;;;17.30;15.07;;;;;;;10.62;70.88;101447.41;6067404;29;20229;-60
2020/12/17 10:54:15;;;;;;;18.63;16.30;;;;;;;10.80;70.11;101452.63;6068609;29;20325;-55
2020/12/17 10:57:35;;;;;;;18.93;16.37;;;;;;;10.74;70.70;101444.81;6073580;29;20233;-56
2020/12/17 11:00:56;;;;;;;21.50;17.20;;;;;;;10.59;71.01;101450.00;6061248;29;20324;-56
2020/12/17 11:04:17;;;;;;;19.50;17.43;;;;;;;10.26;73.23;101449.06;6065367;29;20509;-60
2020/12/17 11:07:37;;;;;;;18.80;16.30;;;;;;;10.71;71.46;101450.00;6073820;29;20233;-58
2020/12/17 11:10:58;;;;;;;21.33;18.30;;;;;;;10.46;72.35;101458.69;6059806;29;20232;-58
2020/12/17 11:14:19;;;;;;;21.53;17.63;;;;;;;10.41;72.50;101459.53;6069660;29;20256;-60
2020/12/17 11:17:39;;;;;;;17.83;15.93;;;;;;;10.30;72.88;101458.66;6066602;29;20236;-63
2020/12/17 11:21:00;;;;;;;16.70;14.33;;;;;;;10.55;73.69;101446.53;6071011;29;20331;-60
2020/12/17 11:24:20;;;;;;;17.93;14.43;;;;;;;10.92;71.74;101449.16;6068890;29;20324;-57
2020/12/17 11:27:41;;;;;;;15.10;13.50;;;;;;;10.87;71.15;101455.22;6065677;29;20233;-59
2020/12/17 11:31:02;;;;;;;15.10;13.50;;;;;;;10.58;72.57;101450.88;6069250;29;20302;-61
2020/12/17 11:34:22;;;;;;;15.07;13.47;;;;;;;10.60;72.69;101446.53;6068632;29;20272;-61
2020/12/17 11:37:46;;;;;;;14.87;13.33;;;;;;;10.62;72.33;101455.22;6069451;29;20224;-60
2020/12/17 11:41:06;;;;;;;14.73;12.67;;;;;;;10.61;72.37;101450.88;6068947;29;20232;-61
2020/12/17 11:44:28;;;;;;;15.30;13.70;;;;;;;10.88;71.68;101451.78;6076157;29;20257;-61
2020/12/17 11:47:48;;;;;;;16.13;14.10;;;;;;;10.80;71.84;101457.84;6070695;29;20229;-60
2020/12/17 11:51:09;;;;;;;13.43;12.10;;;;;;;10.80;71.59;101459.59;6068520;29;20245;-61
2020/12/17 11:54:29;;;;;;;14.27;12.73;;;;;;;10.73;72.13;101455.22;6070633;29;20252;-61
2020/12/17 11:57:50;;;;;;;12.90;11.70;;;;;;;10.68;72.29;101465.63;6076500;29;20233;-60
2020/12/17 12:01:12;;;;;;;14.33;12.70;;;;;;;10.66;72.77;101469.09;6074753;29;20230;-60
2020/12/17 12:04:32;;;;;;;12.53;11.40;;;;;;;10.69;72.30;101480.41;6074499;29;20237;-56
2020/12/17 12:07:53;;;;;;;13.93;12.47;;;;;;;10.45;73.33;101483.84;6066334;29;20256;-59
2020/12/17 12:11:17;;;;;;;13.67;12.27;;;;;;;10.62;72.70;101468.22;6073679;29;20225;-61
2020/12/17 12:14:38;;;;;;;13.70;12.30;;;;;;;10.89;72.12;101474.34;6072552;29;20233;-56
2020/12/17 12:17:59;;;;;;;13.77;12.47;;;;;;;10.80;71.98;101476.06;6072134;29;20529;-65
2020/12/17 12:21:19;;;;;;;12.57;11.40;;;;;;;10.92;72.56;101490.84;6068253;29;20253;-63
2020/12/17 12:24:40;;;;;;;14.93;12.53;;;;;;;11.18;71.22;101493.44;6072078;29;20237;-59
2020/12/17 12:28:00;;;;;;;13.30;11.93;;;;;;;11.18;71.16;101488.22;6073011;29;20244;-62
2020/12/17 12:31:21;;;;;;;13.07;11.77;;;;;;;10.90;71.96;101496.94;6068327;29;20225;-61
2020/12/17 12:34:43;;;;;;;13.63;12.00;;;;;;;11.03;71.52;101503.84;6072859;29;20241;-61
2020/12/17 12:38:03;;;;;;;14.30;12.27;;;;;;;10.97;72.15;101509.06;6073115;29;20233;-61
2020/12/17 12:41:23;;;;;;;13.13;11.87;;;;;;;10.89;72.83;101522.09;6073047;29;20230;-61
2020/12/17 12:44:43;;;;;;;11.27;10.17;;;;;;;10.68;72.67;101528.16;6073379;29;20238;-60
2020/12/17 12:48:05;;;;;;;12.07;10.30;;;;;;;11.06;71.61;101535.16;6074473;29;20229;-56
2020/12/17 12:51:26;;;;;;;11.43;10.17;;;;;;;11.30;70.19;101528.19;6068100;29;20229;-56
2020/12/17 12:54:46;;;;;;;9.17;7.80;;;;;;;11.52;68.72;101535.13;6073451;29;20237;-62
2020/12/17 12:58:07;;;;;;;8.37;7.57;;;;;;;11.58;68.59;101532.50;6071069;29;20822;-55
2020/12/17 13:01:34;;;;;;;7.27;6.53;;;;;;;11.48;68.17;101543.84;6073668;29;20325;-61
2020/12/17 13:04:55;;;;;;;6.97;6.27;;;;;;;11.54;67.59;101533.38;6074720;29;20245;-53
2020/12/17 13:08:17;;;;;;;6.57;5.97;;;;;;;11.83;67.05;101540.28;6067947;29;20225;-61
2020/12/17 13:11:38;;;;;;;7.80;7.10;;;;;;;11.89;66.89;101545.53;6067886;29;20233;-61
2020/12/17 13:14:58;;;;;;;7.47;6.47;;;;;;;11.97;66.49;101537.66;6070860;29;20242;-62
2020/12/17 13:18:19;;;;;;;4.97;4.57;;;;;;;11.70;66.70;101549.00;6069894;29;21299;-60
2020/12/17 13:21:39;;;;;;;4.20;3.90;;;;;;;11.63;66.07;101543.81;6071564;29;20236;-62
2020/12/17 13:25:01;;;;;;;4.70;4.30;;;;;;;11.92;65.46;101555.97;6072713;29;20869;-63
2020/12/17 13:28:21;;;;;;;4.20;3.90;;;;;;;11.92;65.16;101552.47;6082021;29;20805;-64
2020/12/17 13:31:42;;;;;;;4.20;3.83;;;;;;;11.96;64.92;101536.81;6071241;29;20351;-64
2020/12/17 13:35:03;;;;;;;4.10;3.80;;;;;;;11.57;65.95;101564.69;6072975;29;20241;-62
2020/12/17 13:38:23;;;;;;;5.00;4.27;;;;;;;11.40;66.36;101566.44;6075085;29;20506;-62
2020/12/17 13:41:49;;;;;;;4.27;3.97;;;;;;;11.65;65.66;101576.84;6070459;29;20955;-66
2020/12/17 13:45:10;;;;;;;4.57;4.17;;;;;;;11.55;65.64;101565.56;6073214;29;20229;-60
2020/12/17 13:48:30;;;;;;;4.50;4.10;;;;;;;11.43;66.11;101575.13;6073563;29;20256;-62
2020/12/17 13:51:51;;;;;;;4.97;4.13;;;;;;;11.26;66.42;101576.00;6069936;29;20624;-63
2020/12/17 13:55:12;;;;;;;4.67;4.27;;;;;;;11.33;66.65;101585.56;6072022;29;20324;-63
2020/12/17 13:58:34;;;;;;;4.20;3.80;;;;;;;11.63;65.72;101588.16;6071253;29;20237;-63
2020/12/17 14:01:55;;;;;;;4.07;3.60;;;;;;;11.54;65.67;101593.38;6067020;29;20237;-62
2020/12/17 14:05:15;;;;;;;3.50;3.20;;;;;;;11.11;66.67;101608.13;6071534;29;20732;-62
2020/12/17 14:08:36;;;;;;;3.83;3.00;;;;;;;11.51;65.39;101606.41;6069033;29;20232;-63
2020/12/17 14:11:57;;;;;;;4.00;2.63;;;;;;;11.39;65.85;101606.44;6075746;29;20245;-62
2020/12/17 14:15:18;;;;;;;4.70;3.70;;;;;;;11.82;64.14;101606.38;6069271;29;20548;-64
2020/12/17 14:18:41;;;;;;;5.93;3.80;;;;;;;11.79;65.86;101604.66;6070894;29;20229;-64
2020/12/17 14:22:01;;;;;;;4.07;2.87;;;;;;;11.65;65.11;101608.16;6065375;29;20229;-61
2020/12/17 14:25:22;;;;;;;4.07;3.20;;;;;;;11.53;65.17;101615.09;6074396;29;20718;-63
2020/12/17 14:28:42;;;;;;;3.50;3.20;;;;;;;11.73;65.06;101617.72;6068521;29;20229;-64
2020/12/17 14:32:04;;;;;;;5.33;4.67;;;;;;;11.39;65.42;101624.69;6069954;29;20241;-58
2020/12/17 14:35:24;;;;;;;3.57;2.93;;;;;;;11.65;64.64;101623.81;6045626;29;20313;-60
2020/12/17 14:38:45;;;;;;;5.20;3.53;;;;;;;11.58;65.16;101626.41;6073147;29;20233;-58
2020/12/17 14:42:05;;;;;;;5.30;4.77;;;;;;;11.56;65.06;101630.78;6072089;29;20647;-61
2020/12/17 14:45:25;;;;;;;5.23;4.80;;;;;;;11.50;65.75;101645.56;6071714;29;20245;-60
2020/12/17 14:48:48;;;;;;;4.87;4.47;;;;;;;11.52;66.10;101636.00;6069760;29;20233;-61
2020/12/17 14:52:08;;;;;;;5.00;4.60;;;;;;;11.49;66.28;101644.69;6071805;29;20232;-59
2020/12/17 14:55:29;;;;;;;5.00;4.50;;;;;;;11.43;66.55;101650.75;6065503;29;20233;-62
2020/12/17 14:58:49;;;;;;;5.90;5.23;;;;;;;11.73;65.64;101650.75;6072167;29;20253;-60
2020/12/17 15:02:10;;;;;;;7.67;6.97;;;;;;;11.40;66.74;101657.72;6066668;29;20764;-57
2020/12/17 15:05:32;;;;;;;8.03;7.23;;;;;;;11.14;68.09;101657.69;6068850;29;20229;-60
2020/12/17 15:08:52;;;;;;;8.80;8.00;;;;;;;11.00;68.93;101657.66;6069256;29;20260;-60
2020/12/17 15:12:13;;;;;;;8.70;8.00;;;;;;;10.91;69.53;101668.03;6068412;29;20229;-59
2020/12/17 15:15:33;;;;;;;9.40;8.67;;;;;;;11.10;69.33;101675.03;6066921;29;20603;-58
2020/12/17 15:18:54;;;;;;;8.03;7.40;;;;;;;11.40;68.34;101681.22;6060740;29;20237;-60
2020/12/17 15:22:15;;;;;;;9.87;7.93;;;;;;;11.03;70.05;101676.78;6064085;29;20237;-59
2020/12/17 15:25:36;;;;;;;8.73;7.93;;;;;;;10.94;70.53;101689.78;6068950;29;20237;-60